sensor_id;sensor_type;location;lat;lon;timestamp;pressure;altitude;pressure_sealevel;temperature
6498;BMP280;3282;48.358;10.958;2022-12-18T00:01:16;97226.00;;;-3.88
6498;BMP280;3282;48.358;10.958;2022-12-18T00:03:44;97212.69;;;-3.99
6498;BMP280;3282;48.358;10.958;2022-12-18T00:06:13;97235.78;;;-3.96
6498;BMP280;3282;48.358;10.958;2022-12-18T00:08:41;97240.22;;;-3.96
6498;BMP280;3282;48.358;10.958;2022-12-18T00:11:11;97243.81;;;-3.85
6498;BMP280;3282;48.358;10.958;2022-12-18T00:13:38;97236.34;;;-3.82
6498;BMP280;3282;48.358;10.958;2022-12-18T00:16:09;97228.81;;;-3.78
6498;BMP280;3282;48.358;10.958;2022-12-18T00:18:36;97239.03;;;-3.76
6498;BMP280;3282;48.358;10.958;2022-12-18T00:21:05;97231.44;;;-3.78
6498;BMP280;3282;48.358;10.958;2022-12-18T00:23:33;97223.50;;;-3.83
6498;BMP280;3282;48.358;10.958;2022-12-18T00:26:04;97228.94;;;-3.85
6498;BMP280;3282;48.358;10.958;2022-12-18T00:28:32;97223.72;;;-3.97
6498;BMP280;3282;48.358;10.958;2022-12-18T00:31:10;97229.16;;;-3.86
6498;BMP280;3282;48.358;10.958;2022-12-18T00:33:37;97239.50;;;-3.79
6498;BMP280;3282;48.358;10.958;2022-12-18T00:36:29;97249.63;;;-3.83
6498;BMP280;3282;48.358;10.958;2022-12-18T00:38:57;97261.31;;;-3.74
6498;BMP280;3282;48.358;10.958;2022-12-18T00:41:24;97254.81;;;-3.71
6498;BMP280;3282;48.358;10.958;2022-12-18T00:44:11;97257.91;;;-3.74
6498;BMP280;3282;48.358;10.958;2022-12-18T00:46:39;97262.22;;;-3.68
6498;BMP280;3282;48.358;10.958;2022-12-18T00:49:06;97240.31;;;-3.79
6498;BMP280;3282;48.358;10.958;2022-12-18T00:51:32;97260.75;;;-3.76
6498;BMP280;3282;48.358;10.958;2022-12-18T00:53:59;97264.63;;;-3.78
6498;BMP280;3282;48.358;10.958;2022-12-18T00:56:26;97274.50;;;-3.81
6498;BMP280;3282;48.358;10.958;2022-12-18T00:58:53;97257.78;;;-3.92
6498;BMP280;3282;48.358;10.958;2022-12-18T01:01:20;97289.03;;;-3.73
6498;BMP280;3282;48.358;10.958;2022-12-18T01:03:47;97263.34;;;-3.88
6498;BMP280;3282;48.358;10.958;2022-12-18T01:06:16;97281.44;;;-3.86
6498;BMP280;3282;48.358;10.958;2022-12-18T01:08:43;97280.31;;;-3.90
6498;BMP280;3282;48.358;10.958;2022-12-18T01:11:14;97286.56;;;-3.92
6498;BMP280;3282;48.358;10.958;2022-12-18T01:13:42;97232.16;;;-4.19
6498;BMP280;3282;48.358;10.958;2022-12-18T01:16:11;97265.78;;;-3.98
6498;BMP280;3282;48.358;10.958;2022-12-18T01:18:38;97297.56;;;-3.89
6498;BMP280;3282;48.358;10.958;2022-12-18T01:21:07;97282.84;;;-3.96
6498;BMP280;3282;48.358;10.958;2022-12-18T01:23:36;97272.03;;;-3.99
6498;BMP280;3282;48.358;10.958;2022-12-18T01:26:12;97282.00;;;-4.08
6498;BMP280;3282;48.358;10.958;2022-12-18T01:28:39;97266.00;;;-4.24
6498;BMP280;3282;48.358;10.958;2022-12-18T01:31:26;97287.47;;;-4.10
6498;BMP280;3282;48.358;10.958;2022-12-18T01:33:54;97284.88;;;-4.22
6498;BMP280;3282;48.358;10.958;2022-12-18T01:36:22;97292.59;;;-4.27
6498;BMP280;3282;48.358;10.958;2022-12-18T01:38:49;97308.22;;;-4.39
6498;BMP280;3282;48.358;10.958;2022-12-18T01:41:23;97308.34;;;-4.46
6498;BMP280;3282;48.358;10.958;2022-12-18T01:43:55;97253.88;;;-4.85
6498;BMP280;3282;48.358;10.958;2022-12-18T01:46:25;97312.41;;;-4.50
6498;BMP280;3282;48.358;10.958;2022-12-18T01:48:59;97310.72;;;-4.56
6498;BMP280;3282;48.358;10.958;2022-12-18T01:51:27;97307.75;;;-4.60
6498;BMP280;3282;48.358;10.958;2022-12-18T01:53:57;97299.69;;;-4.58
6498;BMP280;3282;48.358;10.958;2022-12-18T01:56:25;97289.03;;;-4.69
6498;BMP280;3282;48.358;10.958;2022-12-18T01:59:00;97267.28;;;-4.81
6498;BMP280;3282;48.358;10.958;2022-12-18T02:01:30;97302.19;;;-4.64
6498;BMP280;3282;48.358;10.958;2022-12-18T02:04:22;97299.22;;;-4.67
6498;BMP280;3282;48.358;10.958;2022-12-18T02:07:07;97305.66;;;-4.70
6498;BMP280;3282;48.358;10.958;2022-12-18T02:09:46;97293.72;;;-4.78
6498;BMP280;3282;48.358;10.958;2022-12-18T02:12:22;97291.63;;;-4.69
6498;BMP280;3282;48.358;10.958;2022-12-18T02:15:05;97285.69;;;-4.76
6498;BMP280;3282;48.358;10.958;2022-12-18T02:17:45;97250.34;;;-4.91
6498;BMP280;3282;48.358;10.958;2022-12-18T02:22:58;97294.47;;;-4.58
6498;BMP280;3282;48.358;10.958;2022-12-18T02:28:32;97286.19;;;-4.55
6498;BMP280;3282;48.358;10.958;2022-12-18T02:31:07;97282.41;;;-4.59
6498;BMP280;3282;48.358;10.958;2022-12-18T02:33:37;97299.56;;;-4.52
6498;BMP280;3282;48.358;10.958;2022-12-18T02:36:06;97298.47;;;-4.44
6498;BMP280;3282;48.358;10.958;2022-12-18T02:38:34;97290.06;;;-4.46
6498;BMP280;3282;48.358;10.958;2022-12-18T02:41:10;97290.53;;;-4.49
6498;BMP280;3282;48.358;10.958;2022-12-18T02:43:37;97304.63;;;-4.38
6498;BMP280;3282;48.358;10.958;2022-12-18T02:46:45;97313.03;;;-4.36
6498;BMP280;3282;48.358;10.958;2022-12-18T02:49:26;97301.31;;;-4.45
6498;BMP280;3282;48.358;10.958;2022-12-18T02:52:05;97302.25;;;-4.40
6498;BMP280;3282;48.358;10.958;2022-12-18T02:57:15;97298.69;;;-4.33
6498;BMP280;3282;48.358;10.958;2022-12-18T03:00:10;97301.09;;;-4.32
6498;BMP280;3282;48.358;10.958;2022-12-18T03:02:44;97289.41;;;-4.29
6498;BMP280;3282;48.358;10.958;2022-12-18T03:05:20;97295.22;;;-4.27
6498;BMP280;3282;48.358;10.958;2022-12-18T03:10:23;97294.19;;;-4.26
6498;BMP280;3282;48.358;10.958;2022-12-18T03:12:54;97298.22;;;-4.30
6498;BMP280;3282;48.358;10.958;2022-12-18T03:15:28;97294.75;;;-4.24
6498;BMP280;3282;48.358;10.958;2022-12-18T03:18:10;97280.97;;;-4.31
6498;BMP280;3282;48.358;10.958;2022-12-18T03:20:42;97293.00;;;-4.30
6498;BMP280;3282;48.358;10.958;2022-12-18T03:23:15;97300.97;;;-4.37
6498;BMP280;3282;48.358;10.958;2022-12-18T03:25:47;97309.94;;;-4.45
6498;BMP280;3282;48.358;10.958;2022-12-18T03:28:19;97301.28;;;-4.57
6498;BMP280;3282;48.358;10.958;2022-12-18T03:30:55;97316.06;;;-4.51
6498;BMP280;3282;48.358;10.958;2022-12-18T03:33:30;97319.38;;;-4.44
6498;BMP280;3282;48.358;10.958;2022-12-18T03:35:58;97311.44;;;-4.49
6498;BMP280;3282;48.358;10.958;2022-12-18T03:38:25;97294.59;;;-4.65
6498;BMP280;3282;48.358;10.958;2022-12-18T03:41:21;97309.03;;;-4.51
6498;BMP280;3282;48.358;10.958;2022-12-18T03:44:13;97312.41;;;-4.50
6498;BMP280;3282;48.358;10.958;2022-12-18T03:47:08;97301.03;;;-4.56
6498;BMP280;3282;48.358;10.958;2022-12-18T03:49:43;97311.81;;;-4.52
6498;BMP280;3282;48.358;10.958;2022-12-18T03:52:37;97309.78;;;-4.62
6498;BMP280;3282;48.358;10.958;2022-12-18T03:55:07;97331.03;;;-4.58
6498;BMP280;3282;48.358;10.958;2022-12-18T03:57:35;97326.38;;;-4.56
6498;BMP280;3282;48.358;10.958;2022-12-18T04:00:11;97320.69;;;-4.53
6498;BMP280;3282;48.358;10.958;2022-12-18T04:02:55;97316.72;;;-4.56
6498;BMP280;3282;48.358;10.958;2022-12-18T04:05:33;97261.44;;;-4.95
6498;BMP280;3282;48.358;10.958;2022-12-18T04:08:01;97294.78;;;-4.67
6498;BMP280;3282;48.358;10.958;2022-12-18T04:10:29;97319.22;;;-4.61
6498;BMP280;3282;48.358;10.958;2022-12-18T04:12:58;97316.38;;;-4.59
6498;BMP280;3282;48.358;10.958;2022-12-18T04:15:25;97314.31;;;-4.57
6498;BMP280;3282;48.358;10.958;2022-12-18T04:17:52;97313.75;;;-4.59
6498;BMP280;3282;48.358;10.958;2022-12-18T04:20:22;97313.91;;;-4.54
6498;BMP280;3282;48.358;10.958;2022-12-18T04:22:49;97309.78;;;-4.50
6498;BMP280;3282;48.358;10.958;2022-12-18T04:25:17;97307.78;;;-4.48
6498;BMP280;3282;48.358;10.958;2022-12-18T04:28:04;97321.88;;;-4.49
6498;BMP280;3282;48.358;10.958;2022-12-18T04:30:31;97258.91;;;-4.83
6498;BMP280;3282;48.358;10.958;2022-12-18T04:32:58;97316.06;;;-4.39
6498;BMP280;3282;48.358;10.958;2022-12-18T04:35:25;97286.19;;;-4.55
6498;BMP280;3282;48.358;10.958;2022-12-18T04:37:51;97314.97;;;-4.43
6498;BMP280;3282;48.358;10.958;2022-12-18T04:40:19;97333.13;;;-4.36
6498;BMP280;3282;48.358;10.958;2022-12-18T04:42:47;97332.91;;;-4.47
6498;BMP280;3282;48.358;10.958;2022-12-18T04:45:14;97341.06;;;-4.43
6498;BMP280;3282;48.358;10.958;2022-12-18T04:47:40;97335.03;;;-4.44
6498;BMP280;3282;48.358;10.958;2022-12-18T04:50:07;97336.38;;;-4.41
6498;BMP280;3282;48.358;10.958;2022-12-18T04:52:34;97325.47;;;-4.50
6498;BMP280;3282;48.358;10.958;2022-12-18T04:55:00;97346.19;;;-4.36
6498;BMP280;3282;48.358;10.958;2022-12-18T04:57:27;97366.97;;;-4.30
6498;BMP280;3282;48.358;10.958;2022-12-18T04:59:53;97358.56;;;-4.32
6498;BMP280;3282;48.358;10.958;2022-12-18T05:02:20;97312.41;;;-4.62
6498;BMP280;3282;48.358;10.958;2022-12-18T05:04:47;97349.94;;;-4.32
6498;BMP280;3282;48.358;10.958;2022-12-18T05:07:13;97355.16;;;-4.32
6498;BMP280;3282;48.358;10.958;2022-12-18T05:09:40;97357.75;;;-4.44
6498;BMP280;3282;48.358;10.958;2022-12-18T05:12:07;97353.78;;;-4.47
6498;BMP280;3282;48.358;10.958;2022-12-18T05:14:33;97362.31;;;-4.40
6498;BMP280;3282;48.358;10.958;2022-12-18T05:17:00;97363.84;;;-4.51
6498;BMP280;3282;48.358;10.958;2022-12-18T05:19:26;97358.84;;;-4.52
6498;BMP280;3282;48.358;10.958;2022-12-18T05:21:53;97351.47;;;-4.55
6498;BMP280;3282;48.358;10.958;2022-12-18T05:24:19;97357.13;;;-4.58
6498;BMP280;3282;48.358;10.958;2022-12-18T05:26:46;97349.97;;;-4.63
6498;BMP280;3282;48.358;10.958;2022-12-18T05:29:13;97344.81;;;-4.70
6498;BMP280;3282;48.358;10.958;2022-12-18T05:31:40;97354.41;;;-4.64
6498;BMP280;3282;48.358;10.958;2022-12-18T05:34:08;97372.94;;;-4.53
6498;BMP280;3282;48.358;10.958;2022-12-18T05:36:36;97377.44;;;-4.60
6498;BMP280;3282;48.358;10.958;2022-12-18T05:39:03;97373.81;;;-4.59
6498;BMP280;3282;48.358;10.958;2022-12-18T05:41:31;97374.50;;;-4.64
6498;BMP280;3282;48.358;10.958;2022-12-18T05:43:58;97366.88;;;-4.66
6498;BMP280;3282;48.358;10.958;2022-12-18T05:46:25;97365.63;;;-4.63
6498;BMP280;3282;48.358;10.958;2022-12-18T05:48:52;97358.13;;;-4.59
6498;BMP280;3282;48.358;10.958;2022-12-18T05:51:21;97348.16;;;-4.63
6498;BMP280;3282;48.358;10.958;2022-12-18T05:53:48;97360.22;;;-4.61
6498;BMP280;3282;48.358;10.958;2022-12-18T05:56:18;97360.63;;;-4.65
6498;BMP280;3282;48.358;10.958;2022-12-18T05:58:46;97364.72;;;-4.69
6498;BMP280;3282;48.358;10.958;2022-12-18T06:01:22;97359.78;;;-4.77
6498;BMP280;3282;48.358;10.958;2022-12-18T06:03:49;97375.56;;;-4.72
6498;BMP280;3282;48.358;10.958;2022-12-18T06:06:19;97377.78;;;-4.69
6498;BMP280;3282;48.358;10.958;2022-12-18T06:08:46;97365.59;;;-4.75
6498;BMP280;3282;48.358;10.958;2022-12-18T06:11:13;97365.28;;;-4.67
6498;BMP280;3282;48.358;10.958;2022-12-18T06:13:39;97357.06;;;-4.70
6498;BMP280;3282;48.358;10.958;2022-12-18T06:16:07;97373.16;;;-4.55
6498;BMP280;3282;48.358;10.958;2022-12-18T06:18:34;97385.31;;;-4.48
6498;BMP280;3282;48.358;10.958;2022-12-18T06:21:01;97389.09;;;-4.44
6498;BMP280;3282;48.358;10.958;2022-12-18T06:23:28;97390.47;;;-4.42
6498;BMP280;3282;48.358;10.958;2022-12-18T06:25:54;97390.56;;;-4.48
6498;BMP280;3282;48.358;10.958;2022-12-18T06:28:21;97390.16;;;-4.52
6498;BMP280;3282;48.358;10.958;2022-12-18T06:30:48;97389.78;;;-4.49
6498;BMP280;3282;48.358;10.958;2022-12-18T06:33:15;97357.19;;;-4.77
6498;BMP280;3282;48.358;10.958;2022-12-18T06:35:42;97385.97;;;-4.65
6498;BMP280;3282;48.358;10.958;2022-12-18T06:38:08;97399.03;;;-4.53
6498;BMP280;3282;48.358;10.958;2022-12-18T06:40:37;97381.53;;;-4.65
6498;BMP280;3282;48.358;10.958;2022-12-18T06:43:04;97386.56;;;-4.51
6498;BMP280;3282;48.358;10.958;2022-12-18T06:45:31;97383.59;;;-4.55
6498;BMP280;3282;48.358;10.958;2022-12-18T06:47:57;97415.91;;;-4.37
6498;BMP280;3282;48.358;10.958;2022-12-18T06:50:24;97413.19;;;-4.30
6498;BMP280;3282;48.358;10.958;2022-12-18T06:52:51;97392.66;;;-4.27
6498;BMP280;3282;48.358;10.958;2022-12-18T06:55:17;97405.53;;;-4.25
6498;BMP280;3282;48.358;10.958;2022-12-18T06:57:44;97399.13;;;-4.29
6498;BMP280;3282;48.358;10.958;2022-12-18T07:00:11;97402.38;;;-4.34
6498;BMP280;3282;48.358;10.958;2022-12-18T07:02:38;97412.41;;;-4.31
6498;BMP280;3282;48.358;10.958;2022-12-18T07:05:05;97406.25;;;-4.36
6498;BMP280;3282;48.358;10.958;2022-12-18T07:07:36;97412.94;;;-4.41
6498;BMP280;3282;48.358;10.958;2022-12-18T07:10:03;97420.31;;;-4.37
6498;BMP280;3282;48.358;10.958;2022-12-18T07:12:30;97409.50;;;-4.53
6498;BMP280;3282;48.358;10.958;2022-12-18T07:14:56;97421.00;;;-4.42
6498;BMP280;3282;48.358;10.958;2022-12-18T07:17:23;97417.59;;;-4.43
6498;BMP280;3282;48.358;10.958;2022-12-18T07:19:50;97408.44;;;-4.52
6498;BMP280;3282;48.358;10.958;2022-12-18T07:22:16;97414.63;;;-4.46
6498;BMP280;3282;48.358;10.958;2022-12-18T07:24:43;97426.81;;;-4.40
6498;BMP280;3282;48.358;10.958;2022-12-18T07:27:09;97429.06;;;-4.44
6498;BMP280;3282;48.358;10.958;2022-12-18T07:29:36;97429.41;;;-4.40
6498;BMP280;3282;48.358;10.958;2022-12-18T07:32:03;97426.59;;;-4.39
6498;BMP280;3282;48.358;10.958;2022-12-18T07:34:30;97429.41;;;-4.40
6498;BMP280;3282;48.358;10.958;2022-12-18T07:36:56;97431.00;;;-4.39
6498;BMP280;3282;48.358;10.958;2022-12-18T07:39:23;97444.13;;;-4.27
6498;BMP280;3282;48.358;10.958;2022-12-18T07:41:50;97440.50;;;-4.26
6498;BMP280;3282;48.358;10.958;2022-12-18T07:44:35;97432.03;;;-4.28
6498;BMP280;3282;48.358;10.958;2022-12-18T07:47:02;97447.59;;;-4.33
6498;BMP280;3282;48.358;10.958;2022-12-18T07:49:35;97427.91;;;-4.48
6498;BMP280;3282;48.358;10.958;2022-12-18T07:52:02;97435.88;;;-4.43
6498;BMP280;3282;48.358;10.958;2022-12-18T07:54:30;97446.28;;;-4.24
6498;BMP280;3282;48.358;10.958;2022-12-18T07:56:56;97432.72;;;-4.33
6498;BMP280;3282;48.358;10.958;2022-12-18T07:59:23;97436.41;;;-4.22
6498;BMP280;3282;48.358;10.958;2022-12-18T08:01:49;97464.69;;;-4.19
6498;BMP280;3282;48.358;10.958;2022-12-18T08:04:16;97417.47;;;-4.48
6498;BMP280;3282;48.358;10.958;2022-12-18T08:06:43;97451.28;;;-4.22
6498;BMP280;3282;48.358;10.958;2022-12-18T08:09:13;97459.59;;;-4.13
6498;BMP280;3282;48.358;10.958;2022-12-18T08:11:40;97463.94;;;-4.07
6498;BMP280;3282;48.358;10.958;2022-12-18T08:14:06;97465.28;;;-4.17
6498;BMP280;3282;48.358;10.958;2022-12-18T08:16:34;97479.63;;;-4.07
6498;BMP280;3282;48.358;10.958;2022-12-18T08:19:01;97481.66;;;-4.09
6498;BMP280;3282;48.358;10.958;2022-12-18T08:21:30;97477.66;;;-4.12
6498;BMP280;3282;48.358;10.958;2022-12-18T08:23:59;97480.34;;;-4.00
6498;BMP280;3282;48.358;10.958;2022-12-18T08:26:28;97477.94;;;-4.01
6498;BMP280;3282;48.358;10.958;2022-12-18T08:28:57;97468.06;;;-3.99
6498;BMP280;3282;48.358;10.958;2022-12-18T08:31:25;97455.09;;;-4.06
6498;BMP280;3282;48.358;10.958;2022-12-18T08:33:53;97477.66;;;-3.81
6498;BMP280;3282;48.358;10.958;2022-12-18T08:36:21;97476.97;;;-3.76
6498;BMP280;3282;48.358;10.958;2022-12-18T08:38:49;97472.66;;;-3.71
6498;BMP280;3282;48.358;10.958;2022-12-18T08:41:16;97478.81;;;-3.65
6498;BMP280;3282;48.358;10.958;2022-12-18T08:43:43;97475.50;;;-3.60
6498;BMP280;3282;48.358;10.958;2022-12-18T08:46:34;97472.00;;;-3.54
6498;BMP280;3282;48.358;10.958;2022-12-18T08:49:05;97473.59;;;-3.53
6498;BMP280;3282;48.358;10.958;2022-12-18T08:51:33;97459.94;;;-3.55
6498;BMP280;3282;48.358;10.958;2022-12-18T08:54:00;97431.41;;;-3.69
6498;BMP280;3282;48.358;10.958;2022-12-18T08:56:28;97429.22;;;-3.60
6498;BMP280;3282;48.358;10.958;2022-12-18T08:58:56;97444.25;;;-3.55
6498;BMP280;3282;48.358;10.958;2022-12-18T09:01:23;97437.44;;;-3.56
6498;BMP280;3282;48.358;10.958;2022-12-18T09:03:51;97461.97;;;-3.33
6498;BMP280;3282;48.358;10.958;2022-12-18T09:06:19;97399.22;;;-3.81
6498;BMP280;3282;48.358;10.958;2022-12-18T09:08:46;97470.84;;;-3.34
6498;BMP280;3282;48.358;10.958;2022-12-18T09:11:18;97478.94;;;-3.36
6498;BMP280;3282;48.358;10.958;2022-12-18T09:13:46;97480.19;;;-3.38
6498;BMP280;3282;48.358;10.958;2022-12-18T09:16:13;97464.03;;;-3.59
6498;BMP280;3282;48.358;10.958;2022-12-18T09:18:40;97481.00;;;-3.50
6498;BMP280;3282;48.358;10.958;2022-12-18T09:21:16;97474.16;;;-3.51
6498;BMP280;3282;48.358;10.958;2022-12-18T09:23:43;97462.13;;;-3.52
6498;BMP280;3282;48.358;10.958;2022-12-18T09:26:10;97470.75;;;-3.39
6498;BMP280;3282;48.358;10.958;2022-12-18T09:28:37;97464.47;;;-3.38
6498;BMP280;3282;48.358;10.958;2022-12-18T09:31:06;97442.88;;;-3.46
6498;BMP280;3282;48.358;10.958;2022-12-18T09:33:37;97460.13;;;-2.96
